createdAt,value
2018-03-06T00:01:29.876Z,7.90
2018-03-06T00:04:04.831Z,7.90
2018-03-06T00:06:35.234Z,7.90
2018-03-06T00:09:07.027Z,7.90
2018-03-06T00:11:36.857Z,7.80
2018-03-06T00:14:09.053Z,7.80
2018-03-06T00:16:39.147Z,7.80
2018-03-06T00:19:12.826Z,7.80
2018-03-06T00:21:42.771Z,7.80
2018-03-06T00:24:15.079Z,7.70
2018-03-06T00:26:45.380Z,7.70
2018-03-06T00:29:16.277Z,7.70
2018-03-06T00:31:46.640Z,7.70
2018-03-06T00:34:20.846Z,7.80
2018-03-06T00:36:51.020Z,7.80
2018-03-06T00:39:21.056Z,7.80
2018-03-06T00:41:51.194Z,7.90
2018-03-06T00:44:22.990Z,7.90
2018-03-06T00:46:53.347Z,7.90
2018-03-06T00:49:24.864Z,7.90
2018-03-06T00:51:56.251Z,7.90
2018-03-06T00:54:27.063Z,7.90
2018-03-06T00:56:57.735Z,8.00
2018-03-06T00:59:29.567Z,8.00
2018-03-06T01:01:59.544Z,8.00
2018-03-06T01:04:31.241Z,8.00
2018-03-06T01:07:01.472Z,8.00
2018-03-06T01:09:34.766Z,8.10
2018-03-06T01:12:04.873Z,8.10
2018-03-06T01:14:37.277Z,8.10
2018-03-06T01:17:07.811Z,8.10
2018-03-06T01:19:40.022Z,8.10
2018-03-06T01:22:10.870Z,8.10
2018-03-06T01:24:42.277Z,8.20
2018-03-06T01:27:12.756Z,8.20
2018-03-06T01:29:44.232Z,8.20
2018-03-06T01:32:14.481Z,8.20
2018-03-06T01:34:46.995Z,8.20
2018-03-06T01:37:17.425Z,8.20
2018-03-06T01:39:49.321Z,8.20
2018-03-06T01:42:19.714Z,8.20
2018-03-06T01:44:52.631Z,8.20
2018-03-06T01:47:23.857Z,8.20
2018-03-06T01:49:55.158Z,8.10
2018-03-06T01:52:26.175Z,8.20
2018-03-06T01:54:58.150Z,8.20
2018-03-06T01:57:28.545Z,8.20
2018-03-06T02:00:00.650Z,8.20
2018-03-06T02:02:31.569Z,8.20
2018-03-06T02:05:04.673Z,8.10
2018-03-06T02:07:34.913Z,8.20
2018-03-06T02:10:08.646Z,8.10
2018-03-06T02:12:39.772Z,8.20
2018-03-06T02:15:11.061Z,8.20
2018-03-06T02:17:41.500Z,8.20
2018-03-06T02:20:15.997Z,8.20
2018-03-06T02:22:46.663Z,8.20
2018-03-06T02:25:16.763Z,8.20
2018-03-06T02:27:46.931Z,8.20
2018-03-06T02:30:18.530Z,8.20
2018-03-06T02:32:48.714Z,8.30
2018-03-06T02:35:20.697Z,8.30
2018-03-06T02:37:51.201Z,8.30
2018-03-06T02:40:22.834Z,8.40
2018-03-06T02:42:53.157Z,8.40
2018-03-06T02:45:24.259Z,8.50
2018-03-06T02:47:55.248Z,8.60
2018-03-06T02:50:29.880Z,8.70
2018-03-06T02:53:02.006Z,8.80
2018-03-06T02:55:32.300Z,8.80
2018-03-06T02:58:02.532Z,8.90
2018-03-06T03:00:32.678Z,9.00
2018-03-06T03:03:02.886Z,9.10
2018-03-06T03:05:32.986Z,9.10
2018-03-06T03:08:03.045Z,9.10
2018-03-06T03:10:36.839Z,9.20
2018-03-06T03:13:07.239Z,9.20
2018-03-06T03:15:37.521Z,9.20
2018-03-06T03:18:07.348Z,9.20
2018-03-06T03:20:40.071Z,9.30
2018-03-06T03:23:09.692Z,9.40
2018-03-06T03:25:42.596Z,9.40
2018-03-06T03:28:12.381Z,9.50
2018-03-06T03:30:45.924Z,9.50
2018-03-06T03:33:15.652Z,9.60
2018-03-06T03:35:46.900Z,9.60
2018-03-06T03:38:17.148Z,9.60
2018-03-06T03:40:49.988Z,9.60
2018-03-06T03:43:19.498Z,9.60
2018-03-06T03:45:53.621Z,9.60
2018-03-06T03:48:23.606Z,9.60
2018-03-06T03:50:55.848Z,9.60
2018-03-06T03:53:27.623Z,9.60
2018-03-06T03:55:59.532Z,9.60
2018-03-06T03:58:30.539Z,9.50
2018-03-06T04:01:01.815Z,9.40
2018-03-06T04:03:31.865Z,9.40
2018-03-06T04:06:09.784Z,9.40
2018-03-06T04:08:40.615Z,9.40
2018-03-06T04:11:10.535Z,9.30
2018-03-06T04:13:41.473Z,9.30
2018-03-06T04:16:11.951Z,9.30
2018-03-06T04:18:42.043Z,9.30
2018-03-06T04:21:14.139Z,9.30
2018-03-06T04:23:43.812Z,9.20
2018-03-06T04:26:16.568Z,9.30
2018-03-06T04:28:47.504Z,9.30
2018-03-06T04:31:17.970Z,9.30
2018-03-06T04:33:47.628Z,9.30
2018-03-06T04:36:20.418Z,9.20
2018-03-06T04:38:50.127Z,9.20
2018-03-06T04:41:24.151Z,9.30
2018-03-06T04:43:53.858Z,9.20
2018-03-06T04:46:24.655Z,9.20
2018-03-06T04:48:54.405Z,9.10
2018-03-06T04:51:26.571Z,9.10
2018-03-06T04:53:56.792Z,9.10
2018-03-06T04:56:29.349Z,9.10
2018-03-06T04:59:00.535Z,9.10
2018-03-06T05:01:32.047Z,9.00
2018-03-06T05:04:02.501Z,9.10
2018-03-06T05:06:33.588Z,9.00
2018-03-06T05:09:04.260Z,9.00
2018-03-06T05:11:36.692Z,8.90
2018-03-06T05:14:06.890Z,8.90
2018-03-06T05:16:40.638Z,8.90
2018-03-06T05:19:11.630Z,8.70
2018-03-06T05:21:43.190Z,8.70
2018-03-06T05:24:13.701Z,8.70
2018-03-06T05:26:44.844Z,8.50
2018-03-06T05:29:15.625Z,8.50
2018-03-06T05:31:47.632Z,8.60
2018-03-06T05:34:17.905Z,8.60
2018-03-06T05:36:51.473Z,8.50
2018-03-06T05:39:21.694Z,8.50
2018-03-06T05:41:52.802Z,8.50
2018-03-06T05:44:23.083Z,8.60
2018-03-06T05:46:55.391Z,8.60
2018-03-06T05:49:25.698Z,8.50
2018-03-06T05:51:57.715Z,8.50
2018-03-06T05:54:28.365Z,8.50
2018-03-06T05:57:01.104Z,8.50
2018-03-06T05:59:31.439Z,8.50
2018-03-06T06:02:05.523Z,8.50
2018-03-06T06:04:35.485Z,8.50
2018-03-06T06:07:08.225Z,8.50
2018-03-06T06:09:38.160Z,8.40
2018-03-06T06:12:12.047Z,8.40
2018-03-06T06:14:42.232Z,8.40
2018-03-06T06:17:13.670Z,8.40
2018-03-06T06:19:45.620Z,8.40
2018-03-06T06:22:16.312Z,8.30
2018-03-06T06:24:47.305Z,8.30
2018-03-06T06:27:18.260Z,8.30
2018-03-06T06:29:48.489Z,8.30
2018-03-06T06:32:20.447Z,8.40
2018-03-06T06:34:50.463Z,8.30
2018-03-06T06:37:22.240Z,8.30
2018-03-06T06:39:53.331Z,8.30
2018-03-06T06:42:24.054Z,8.30
2018-03-06T06:44:54.100Z,8.30
2018-03-06T06:47:26.999Z,8.30
2018-03-06T06:49:57.462Z,8.30
2018-03-06T06:52:28.782Z,8.30
2018-03-06T06:54:59.780Z,8.50
2018-03-06T06:57:31.416Z,8.50
2018-03-06T07:00:01.597Z,8.50
2018-03-06T07:02:33.002Z,8.70
2018-03-06T07:05:03.031Z,8.70
2018-03-06T07:07:36.046Z,8.70
2018-03-06T07:10:06.707Z,8.70
2018-03-06T07:12:37.967Z,8.70
2018-03-06T07:15:08.159Z,8.80
2018-03-06T07:17:41.552Z,8.80
2018-03-06T07:20:12.254Z,9.00
2018-03-06T07:22:43.635Z,9.00
2018-03-06T07:25:14.438Z,9.10
2018-03-06T07:27:46.179Z,9.10
2018-03-06T07:32:54.881Z,9.20
2018-03-06T07:35:25.399Z,9.30
2018-03-06T07:37:56.113Z,9.30
2018-03-06T07:40:26.803Z,9.20
2018-03-06T07:42:56.894Z,9.20
2018-03-06T07:45:26.945Z,9.30
2018-03-06T07:47:58.303Z,9.20
2018-03-06T07:50:27.962Z,9.30
2018-03-06T07:53:00.616Z,9.40
2018-03-06T07:55:32.471Z,9.60
2018-03-06T07:58:03.818Z,9.50
2018-03-06T08:00:34.663Z,9.60
2018-03-06T08:03:05.319Z,9.60
2018-03-06T08:05:35.540Z,9.60
2018-03-06T08:08:08.766Z,9.60
2018-03-06T08:10:38.805Z,9.70
2018-03-06T08:13:10.589Z,9.70
2018-03-06T08:15:41.043Z,9.80
2018-03-06T08:18:14.080Z,9.80
2018-03-06T08:20:45.157Z,10.00
2018-03-06T08:23:16.639Z,10.00
2018-03-06T08:25:46.616Z,10.10
2018-03-06T08:28:18.133Z,10.20
2018-03-06T08:30:48.814Z,10.20
2018-03-06T08:33:19.849Z,10.20
2018-03-06T08:35:50.160Z,10.30
2018-03-06T08:38:21.963Z,10.40
2018-03-06T08:40:51.970Z,10.40
2018-03-06T08:43:24.704Z,10.40
2018-03-06T08:45:54.396Z,10.40
2018-03-06T08:48:27.148Z,10.40
2018-03-06T08:50:56.915Z,10.40
2018-03-06T08:53:29.050Z,10.40
2018-03-06T08:55:59.545Z,10.60
2018-03-06T08:58:31.526Z,10.60
2018-03-06T09:01:01.419Z,10.70
2018-03-06T09:03:33.254Z,10.70
2018-03-06T09:06:03.369Z,10.70
2018-03-06T09:08:36.620Z,10.70
2018-03-06T09:11:07.269Z,10.80
2018-03-06T09:13:38.817Z,10.80
2018-03-06T09:16:09.462Z,10.90
2018-03-06T09:18:43.342Z,10.90
2018-03-06T09:21:14.503Z,11.20
2018-03-06T09:23:45.246Z,11.20
2018-03-06T09:26:15.359Z,11.10
2018-03-06T09:28:47.712Z,11.30
2018-03-06T09:31:18.564Z,11.40
2018-03-06T09:33:49.224Z,11.40
2018-03-06T09:36:19.915Z,11.60
2018-03-06T09:38:50.826Z,11.70
2018-03-06T09:41:21.659Z,11.80
2018-03-06T09:43:54.783Z,11.90
2018-03-06T09:46:25.584Z,12.00
2018-03-06T09:49:08.650Z,12.20
2018-03-06T09:51:39.640Z,12.30
2018-03-06T09:54:10.116Z,12.30
2018-03-06T09:56:41.314Z,12.30
2018-03-06T09:59:13.073Z,12.40
2018-03-06T10:01:43.798Z,12.40
2018-03-06T10:04:17.612Z,12.60
2018-03-06T10:06:50.711Z,12.70
2018-03-06T10:09:23.157Z,13.00
2018-03-06T10:11:52.876Z,13.00
2018-03-06T10:14:22.515Z,12.90
2018-03-06T10:16:53.913Z,12.80
2018-03-06T10:19:23.699Z,12.80
2018-03-06T10:21:53.729Z,12.70
2018-03-06T10:24:23.734Z,12.60
2018-03-06T10:26:53.357Z,12.60
2018-03-06T10:29:24.333Z,12.80
2018-03-06T10:31:53.996Z,12.90
2018-03-06T10:34:23.679Z,12.80
2018-03-06T10:36:53.717Z,12.90
2018-03-06T10:39:23.566Z,12.80
2018-03-06T10:41:53.281Z,12.70
2018-03-06T10:44:26.019Z,12.80
2018-03-06T10:46:55.828Z,12.80
2018-03-06T10:49:27.889Z,12.80
2018-03-06T10:51:57.926Z,12.90
2018-03-06T10:54:32.727Z,13.00
2018-03-06T10:57:02.618Z,13.00
2018-03-06T10:59:33.242Z,13.20
2018-03-06T11:08:46.543Z,13.40
2018-03-06T11:25:51.615Z,13.00
2018-03-06T11:28:21.464Z,13.00
2018-03-06T11:30:52.215Z,13.30
2018-03-06T11:33:22.870Z,13.40
2018-03-06T11:35:55.201Z,13.40
2018-03-06T11:38:24.665Z,13.50
2018-03-06T11:40:56.773Z,13.30
2018-03-06T11:43:26.402Z,13.20
2018-03-06T11:46:00.779Z,13.30
2018-03-06T11:51:18.149Z,13.30
2018-03-06T11:53:49.116Z,13.40
2018-03-06T11:56:18.766Z,13.50
2018-03-06T11:58:48.309Z,13.50
2018-03-06T12:01:19.254Z,13.40
2018-03-06T12:03:49.607Z,13.40
2018-03-06T12:06:20.179Z,13.40
2018-03-06T12:08:50.063Z,13.40
2018-03-06T12:11:19.644Z,13.30
2018-03-06T12:13:50.012Z,13.40
2018-03-06T12:16:20.000Z,13.40
2018-03-06T12:19:00.466Z,13.40
2018-03-06T12:21:30.716Z,13.30
2018-03-06T12:24:01.107Z,13.20
2018-03-06T12:26:32.434Z,13.20
2018-03-06T12:29:03.154Z,13.20
2018-03-06T12:31:32.825Z,13.20
2018-03-06T12:36:50.122Z,13.10
2018-03-06T12:39:26.441Z,13.10
2018-03-06T12:44:54.813Z,12.90
2018-03-06T12:51:37.562Z,13.00
2018-03-06T12:54:08.595Z,13.00
2018-03-06T12:56:38.514Z,13.20
2018-03-06T12:59:08.126Z,13.30
2018-03-06T13:04:13.762Z,13.40
2018-03-06T13:06:44.370Z,13.50
2018-03-06T13:09:15.026Z,13.50
2018-03-06T13:11:46.313Z,13.60
2018-03-06T13:14:16.049Z,13.60
2018-03-06T13:16:45.762Z,13.80
2018-03-06T13:19:15.942Z,13.80
2018-03-06T13:22:54.201Z,13.80
2018-03-06T13:28:17.550Z,13.90
2018-03-06T13:30:50.695Z,13.80
2018-03-06T13:33:20.415Z,13.70
2018-03-06T13:42:26.965Z,14.10
2018-03-06T13:44:58.880Z,14.00
2018-03-06T13:47:28.603Z,14.10
2018-03-06T13:50:00.928Z,14.20
2018-03-06T13:52:31.338Z,14.20
2018-03-06T13:55:04.839Z,14.20
2018-03-06T13:57:35.695Z,13.90
2018-03-06T14:00:08.081Z,13.90
2018-03-06T14:02:37.756Z,13.80
2018-03-06T14:05:09.013Z,13.90
2018-03-06T14:12:49.781Z,13.80
2018-03-06T14:15:19.850Z,13.80
2018-03-06T14:17:49.592Z,13.80
2018-03-06T14:20:19.644Z,13.90
2018-03-06T14:22:50.052Z,13.90
2018-03-06T14:29:25.989Z,14.10
2018-03-06T14:31:56.173Z,14.10
2018-03-06T14:37:01.229Z,13.90
2018-03-06T14:39:32.367Z,13.80
2018-03-06T14:42:01.976Z,13.80
2018-03-06T14:44:31.714Z,13.40
2018-03-06T14:47:01.661Z,13.30
2018-03-06T14:53:36.223Z,13.20
2018-03-06T14:56:06.116Z,13.00
2018-03-06T14:58:36.216Z,12.90
2018-03-06T15:05:11.794Z,12.90
2018-03-06T15:11:05.953Z,12.70
2018-03-06T15:13:43.232Z,12.60
2018-03-06T15:19:16.819Z,12.30
2018-03-06T15:21:47.197Z,12.30
2018-03-06T15:30:18.328Z,12.10
2018-03-06T15:32:56.096Z,12.00
2018-03-06T15:35:54.946Z,12.00
2018-03-06T15:38:24.968Z,12.00
2018-03-06T15:40:59.722Z,11.90
2018-03-06T15:46:27.477Z,11.90
2018-03-06T15:49:06.924Z,11.90
2018-03-06T15:51:36.876Z,11.80
2018-03-06T16:00:34.971Z,11.60
2018-03-06T16:10:59.328Z,11.50
2018-03-06T16:13:29.258Z,11.50
2018-03-06T16:15:58.859Z,11.50
2018-03-06T16:18:29.188Z,11.50
2018-03-06T16:20:59.170Z,11.40
2018-03-06T16:23:28.839Z,11.40
2018-03-06T16:25:59.365Z,11.40
2018-03-06T16:28:30.516Z,11.40
2018-03-06T16:31:00.915Z,11.40
2018-03-06T16:33:30.612Z,11.40
2018-03-06T16:36:00.534Z,11.30
2018-03-06T16:38:30.473Z,11.30
2018-03-06T16:41:00.244Z,11.30
2018-03-06T16:43:33.146Z,11.30
2018-03-06T16:46:02.857Z,11.30
2018-03-06T16:52:38.408Z,11.30
2018-03-06T16:58:09.380Z,11.40
2018-03-06T17:04:11.749Z,11.40
2018-03-06T17:06:42.824Z,11.40
2018-03-06T17:09:12.403Z,11.40
2018-03-06T17:11:44.255Z,11.40
2018-03-06T17:14:15.831Z,11.40
2018-03-06T17:16:45.711Z,11.30
2018-03-06T17:19:16.239Z,11.30
2018-03-06T17:21:49.825Z,11.30
2018-03-06T17:24:19.392Z,11.30
2018-03-06T17:26:53.240Z,11.30
2018-03-06T17:29:25.792Z,11.30
2018-03-06T17:31:56.884Z,11.30
2018-03-06T17:34:27.592Z,11.30
2018-03-06T17:36:58.668Z,11.30
2018-03-06T17:39:28.269Z,11.30
2018-03-06T17:42:01.883Z,11.30
2018-03-06T17:44:32.143Z,11.30
2018-03-06T17:47:05.328Z,11.30
2018-03-06T17:50:04.295Z,11.30
2018-03-06T17:52:34.025Z,11.20
2018-03-06T17:55:08.966Z,11.20
2018-03-06T17:57:40.005Z,11.20
2018-03-06T18:00:13.056Z,11.20
2018-03-06T18:05:53.748Z,11.20
2018-03-06T18:08:24.838Z,11.20
2018-03-06T18:13:47.502Z,11.20
2018-03-06T18:20:26.997Z,11.20
2018-03-06T18:22:56.508Z,11.20
2018-03-06T18:25:26.533Z,11.20
2018-03-06T18:27:57.493Z,11.10
2018-03-06T18:30:28.738Z,11.10
2018-03-06T18:32:59.205Z,11.10
2018-03-06T18:35:32.489Z,11.10
2018-03-06T18:38:02.379Z,11.10
2018-03-06T18:40:36.203Z,11.00
2018-03-06T18:43:06.243Z,11.00
2018-03-06T18:45:37.390Z,11.00
2018-03-06T18:48:07.001Z,11.00
2018-03-06T18:50:51.977Z,10.90
2018-03-06T18:56:07.115Z,10.90
2018-03-06T18:58:43.567Z,10.60
2018-03-06T19:05:28.035Z,10.60
2018-03-06T19:07:58.474Z,10.10
2018-03-06T19:10:28.222Z,10.10
2018-03-06T19:12:59.384Z,10.10
2018-03-06T19:15:29.198Z,9.90
2018-03-06T19:17:59.001Z,9.80
2018-03-06T19:32:00.605Z,9.80
2018-03-06T19:34:30.507Z,9.80
2018-03-06T19:40:21.738Z,9.80
2018-03-06T19:42:51.528Z,9.80
2018-03-06T19:54:39.735Z,9.80
2018-03-06T19:59:45.250Z,9.80
2018-03-06T20:02:15.662Z,9.80
2018-03-06T20:04:45.612Z,9.90
2018-03-06T20:07:23.593Z,9.80
2018-03-06T20:09:53.312Z,9.80
2018-03-06T20:12:24.498Z,9.90
2018-03-06T20:14:59.291Z,9.90
2018-03-06T20:17:29.432Z,9.80
2018-03-06T20:19:59.136Z,9.80
2018-03-06T20:22:28.800Z,9.70
2018-03-06T20:25:02.921Z,9.70
2018-03-06T20:27:32.717Z,9.70
2018-03-06T20:30:02.475Z,9.70
2018-03-06T20:33:41.769Z,9.70
2018-03-06T20:36:11.418Z,9.70
2018-03-06T20:38:46.355Z,9.70
2018-03-06T20:41:19.786Z,9.60
2018-03-06T20:43:50.628Z,9.60
2018-03-06T20:49:03.292Z,9.60
2018-03-06T20:51:40.338Z,9.60
2018-03-06T20:54:15.124Z,9.70
2018-03-06T20:56:44.955Z,9.70
2018-03-06T20:59:15.674Z,9.70
2018-03-06T21:01:46.467Z,9.70
2018-03-06T21:04:16.416Z,9.70
2018-03-06T21:06:46.325Z,9.70
2018-03-06T21:09:16.429Z,9.70
2018-03-06T21:11:47.935Z,9.70
2018-03-06T21:14:17.403Z,9.70
2018-03-06T21:16:54.577Z,9.60
2018-03-06T21:19:24.349Z,9.50
2018-03-06T21:21:54.050Z,9.50
2018-03-06T21:24:24.354Z,9.40
2018-03-06T21:26:56.388Z,9.40
2018-03-06T21:29:27.011Z,9.30
2018-03-06T21:34:35.149Z,9.40
2018-03-06T21:37:04.912Z,9.40
2018-03-06T21:39:35.840Z,9.50
2018-03-06T21:42:06.439Z,9.50
2018-03-06T21:44:37.006Z,9.50
2018-03-06T21:47:10.610Z,9.40
2018-03-06T21:49:40.302Z,9.40
2018-03-06T21:52:13.626Z,9.40
2018-03-06T21:54:43.831Z,9.30
2018-03-06T21:57:15.159Z,9.30
2018-03-06T21:59:44.983Z,9.30
2018-03-06T22:02:17.794Z,9.30
2018-03-06T22:04:47.750Z,9.40
2018-03-06T22:07:19.879Z,9.40
2018-03-06T22:09:50.031Z,9.40
2018-03-06T22:12:20.645Z,9.50
2018-03-06T22:14:50.672Z,9.40
2018-03-06T22:17:28.057Z,9.40
2018-03-06T22:19:58.418Z,9.50
2018-03-06T22:22:28.849Z,9.40
2018-03-06T22:24:58.682Z,9.40
2018-03-06T22:27:28.872Z,9.40
2018-03-06T22:29:58.497Z,9.40
2018-03-06T22:32:31.526Z,9.40
2018-03-06T22:35:02.332Z,9.40
2018-03-06T22:37:32.775Z,9.30
2018-03-06T22:40:02.516Z,9.30
2018-03-06T22:42:35.636Z,9.40
2018-03-06T22:45:05.710Z,9.40
2018-03-06T22:47:39.108Z,9.40
2018-03-06T22:50:09.066Z,9.40
2018-03-06T22:52:41.339Z,9.40
2018-03-06T22:55:11.140Z,9.40
2018-03-06T22:57:42.496Z,9.40
2018-03-06T23:00:12.775Z,9.40
2018-03-06T23:02:44.743Z,9.30
2018-03-06T23:05:15.344Z,9.40
2018-03-06T23:07:48.135Z,9.40
2018-03-06T23:10:18.076Z,9.40
2018-03-06T23:12:51.652Z,9.40
2018-03-06T23:15:23.719Z,9.40
2018-03-06T23:18:06.988Z,9.40
2018-03-06T23:20:37.228Z,9.40
2018-03-06T23:23:07.093Z,9.40
2018-03-06T23:25:37.660Z,9.30
2018-03-06T23:28:07.721Z,9.30
2018-03-06T23:30:37.706Z,9.30
2018-03-06T23:33:07.916Z,9.30
2018-03-06T23:35:38.270Z,9.30
2018-03-06T23:38:08.044Z,9.20
2018-03-06T23:40:37.950Z,9.20
2018-03-06T23:43:09.390Z,9.20
2018-03-06T23:45:39.125Z,9.20
2018-03-06T23:48:11.928Z,9.10
2018-03-06T23:50:41.896Z,9.10
2018-03-06T23:53:14.833Z,9.10
2018-03-06T23:55:45.055Z,9.00
2018-03-06T23:58:16.661Z,9.10
